Data for 09/17/2007

Time Sea-Level Adjusted Pressure Absolute Pressure Temperature Relative Humidity Dew Point   
(mb) (inHg) (mb) (inHg) (C) (F) (%) (C) (F)
00:05 1013 29.91 842 24.86 14.5 58.2 34 -0.9 30.4
00:10 1013 29.91 842 24.86 14.5 58.1 34 -1.2 29.9
00:15 1013 29.91 842 24.86 14.5 58.1 34 -1.1 30
00:20 1013 29.91 842 24.86 14.6 58.2 34 -1.1 30.1
00:25 1013 29.91 842 24.86 14.6 58.3 33 -1.4 29.5
00:30 1013 29.91 842 24.86 14.6 58.2 34 -1.1 30
00:35 1013 29.91 842 24.86 14.4 57.9 36 -0.6 31
00:40 1013 29.91 842 24.86 14.3 57.7 34 -1.2 29.9
00:45 1013 29.91 842 24.86 14.2 57.5 35 -0.9 30.3
00:50 1013 29.91 843 24.89 13.9 56.9 36 -1 30.2
00:55 1013 29.91 843 24.89 13.7 56.7 35 -1.2 29.8
01:00 1013 29.91 843 24.89 13.4 56.1 37 -0.8 30.6
01:05 1013 29.91 843 24.89 12.8 55.1 39 -0.7 30.8
01:10 1013 29.91 843 24.89 12.5 54.5 40 -0.7 30.8
01:15 1014 29.94 843 24.89 12 53.7 41 -0.7 30.8
01:20 1014 29.94 843 24.89 11.6 52.9 43 -0.6 30.9
01:25 1014 29.94 843 24.89 11.4 52.6 43 -0.6 30.9
01:30 1014 29.94 843 24.89 11.5 52.8 41 -1.1 30.1
01:35 1014 29.94 843 24.89 12 53.7 41 -0.9 30.4
01:40 1014 29.94 843 24.89 12.1 53.9 41 -0.7 30.7
01:45 1014 29.94 843 24.89 12 53.6 41 -0.6 30.9
01:50 1014 29.94 843 24.89 11.8 53.3 42 -0.5 31.1
01:55 1014 29.94 843 24.89 11.4 52.4 44 -0.6 31
02:00 1014 29.94 843 24.89 11.2 52.2 43 -0.7 30.7
02:05 1014 29.94 843 24.89 11.2 52.2 41 -1.4 29.5
02:10 1014 29.94 843 24.89 11.3 52.3 42 -1.1 30.1
02:15 1014 29.94 843 24.89 11.3 52.4 42 -1.1 30
02:20 1014 29.94 843 24.89 11 51.8 43 -1.1 30
02:25 1014 29.94 843 24.89 10.9 51.6 42 -1.6 29.2
02:30 1014 29.94 843 24.89 10.9 51.6 43 -1 30.1
02:35 1014 29.94 843 24.89 10.6 51 45 -1 30.3
02:40 1014 29.94 843 24.89 10.5 51 45 -0.9 30.3
02:45 1014 29.94 843 24.89 10.6 51 45 -0.7 30.8
02:50 1014 29.94 843 24.89 10.8 51.4 44 -0.9 30.4
02:55 1014 29.94 843 24.89 10.7 51.3 45 -0.7 30.7
03:00 1013 29.91 843 24.89 10.5 50.9 46 -0.6 30.9
03:05 1013 29.91 843 24.89 10.1 50.1 50 0 32
03:10 1013 29.91 843 24.89 9.5 49 47 -1.1 30
03:15 1013 29.91 843 24.89 9.9 49.7 48 -0.7 30.7
03:20 1013 29.91 843 24.89 9.7 49.5 50 -0.1 31.8
03:25 1013 29.91 843 24.89 9.3 48.7 51 -0.4 31.3
03:30 1013 29.91 843 24.89 9.4 48.9 49 -0.7 30.7
03:35 1013 29.91 843 24.89 9.7 49.4 49 -0.6 30.9
03:40 1013 29.91 843 24.89 9.7 49.5 48 -0.7 30.7
03:45 1013 29.91 843 24.89 9.8 49.7 48 -0.7 30.8
03:50 1013 29.91 843 24.89 9.9 49.8 47 -0.8 30.6
03:55 1014 29.94 843 24.89 10.1 50.2 46 -0.9 30.4
04:00 1014 29.94 843 24.89 10.2 50.4 47 -0.7 30.7
04:05 1014 29.94 843 24.89 10.2 50.3 46 -0.8 30.5
04:10 1014 29.94 843 24.89 10.2 50.4 47 -0.6 30.9
04:15 1014 29.94 843 24.89 10 49.9 50 0.1 32.1
04:20 1014 29.94 843 24.89 9.5 49.1 50 -0.5 31.1
04:25 1014 29.94 843 24.89 9.8 49.6 46 -1.1 30
04:30 1014 29.94 843 24.89 10 50 49 -0.1 31.9
04:35 1014 29.94 843 24.89 9.5 49.2 51 -0 32
04:40 1014 29.94 843 24.89 9.3 48.8 50 -0.5 31.2
04:45 1014 29.94 843 24.89 9.2 48.5 51 -0.4 31.3
04:50 1014 29.94 843 24.89 9.2 48.5 50 -0.6 30.9
04:55 1014 29.94 843 24.89 9.2 48.6 49 -0.8 30.5
05:00 1014 29.94 843 24.89 9.4 49 49 -0.6 30.8
05:05 1014 29.94 843 24.89 9.4 48.9 49 -0.6 30.9
05:10 1014 29.94 843 24.89 9.3 48.8 50 -0.6 30.9
05:15 1014 29.94 843 24.89 9.4 48.9 50 -0.6 30.9
05:20 1014 29.94 843 24.89 9.4 48.8 51 -0.4 31.4
05:25 1014 29.94 843 24.89 9.1 48.4 53 -0 31.9
05:30 1014 29.94 843 24.89 8.8 47.9 52 -0.4 31.2
05:35 1014 29.94 843 24.89 8.9 48 52 -0.5 31.1
05:40 1014 29.94 843 24.89 8.9 48 53 -0.1 31.9
05:45 1014 29.94 843 24.89 8.3 47 55 -0 31.9
05:50 1014 29.94 843 24.89 8.3 46.9 52 -0.9 30.3
05:55 1014 29.94 843 24.89 9.1 48.4 49 -0.9 30.4
06:00 1014 29.94 843 24.89 9.5 49.2 48 -0.8 30.6
06:05 1014 29.94 843 24.89 9.7 49.5 51 0.2 32.4
06:10 1014 29.94 843 24.89 9.6 49.2 52 0.1 32.2
06:15 1014 29.94 843 24.89 9.1 48.4 55 0.5 33
06:20 1014 29.94 843 24.89 8.4 47.1 55 -0.1 31.9
06:25 1014 29.94 843 24.89 7.9 46.2 57 -0.2 31.7
06:30 1014 29.94 843 24.89 7.7 45.8 57 -0.2 31.6
06:35 1014 29.94 843 24.89 7.3 45.2 63 0.8 33.4
06:40 1014 29.94 843 24.89 6.6 43.8 63 0.1 32.2
06:45 1014 29.94 843 24.89 6.5 43.7 61 -0.6 31
06:50 1014 29.94 843 24.89 6.8 44.3 60 -0.4 31.3
06:55 1014 29.94 843 24.89 6.8 44.3 61 -0.2 31.6
07:00 1014 29.94 843 24.89 6.7 44.1 61 -0.2 31.7
07:05 1014 29.94 843 24.89 6.6 43.8 62 -0.2 31.7
07:10 1014 29.94 843 24.89 6.3 43.4 61 -0.5 31.1
07:15 1014 29.94 843 24.89 6.4 43.5 62 -0.4 31.3
07:20 1014 29.94 843 24.89 6.2 43.2 63 -0.4 31.4
07:25 1014 29.94 843 24.89 6.2 43.1 63 -0.4 31.3
07:30 1014 29.94 843 24.89 6.2 43.2 62 -0.6 30.9
07:35 1014 29.94 843 24.89 6.4 43.5 62 -0.4 31.3
07:40 1014 29.94 843 24.89 6.3 43.4 62 -0.4 31.3
07:45 1014 29.94 843 24.89 6.3 43.4 64 -0 32
07:50 1014 29.94 843 24.89 6.2 43.2 63 -0.4 31.3
07:55 1014 29.94 843 24.89 6.7 44.1 58 -0.9 30.5
08:00 1014 29.94 843 24.89 7.2 45 58 -0.6 31
08:05 1014 29.94 843 24.89 7.4 45.3 57 -0.5 31.1
08:10 1014 29.94 843 24.89 7.6 45.6 57 -0.4 31.4
08:15 1014 29.94 843 24.89 7.7 45.9 56 -0.4 31.4
08:20 1014 29.94 844 24.92 8 46.4 55 -0.5 31.1
08:25 1014 29.94 844 24.92 8.3 46.9 54 -0.3 31.4
08:30 1014 29.94 844 24.92 8.6 47.5 55 0.1 32.2
08:35 1014 29.94 844 24.92 8.9 47.9 54 0.2 32.4
08:40 1014 29.94 844 24.92 9 48.2 53 0.1 32.1
08:45 1015 29.97 844 24.92 9.2 48.6 53 0.2 32.4
08:50 1015 29.97 844 24.92 9.4 48.9 54 0.5 33
08:55 1015 29.97 844 24.92 9.7 49.4 52 0.3 32.5
09:00 1015 29.97 844 24.92 10.1 50.2 51 0.4 32.7
09:05 1015 29.97 844 24.92 10.6 51.1 49 0.4 32.7
09:10 1015 29.97 844 24.92 11.3 52.3 46 0.2 32.4
09:15 1015 29.97 844 24.92 11.9 53.4 45 0.4 32.7
09:20 1015 29.97 844 24.92 12.3 54.2 45 0.9 33.6
09:25 1015 29.97 844 24.92 12.6 54.7 44 0.9 33.5
09:30 1015 29.97 844 24.92 12.5 54.5 43 0.3 32.5
09:35 1015 29.97 844 24.92 12.4 54.3 43 0.3 32.6
09:40 1015 29.97 844 24.92 12.6 54.7 43 0.6 33
09:45 1015 29.97 844 24.92 13 55.4 42 0.4 32.7
09:50 1015 29.97 844 24.92 13.7 56.7 39 0.2 32.3
09:55 1015 29.97 844 24.92 14.3 57.8 35 -0.8 30.6
10:00 1015 29.97 844 24.92 14.6 58.3 34 -0.9 30.3
10:05 1015 29.97 844 24.92 14.8 58.7 35 -0.2 31.6
10:10 1015 29.97 844 24.92 15.2 59.4 34 -0.5 31
10:15 1015 29.97 844 24.92 15.2 59.3 35 -0 31.9
10:20 1015 29.97 844 24.92 15.2 59.4 35 -0.1 31.9
10:25 1015 29.97 844 24.92 15 59.1 36 0.3 32.5
10:30 1015 29.97 844 24.92 15.4 59.7 35 0.1 32.2
10:35 1015 29.97 844 24.92 15.7 60.2 35 0.4 32.7
10:40 1015 29.97 844 24.92 15 59.1 37 0.6 33.1
10:45 1015 29.97 844 24.92 14.4 57.8 40 0.9 33.6
10:50 1015 29.97 844 24.92 14.7 58.4 38 0.8 33.4
10:55 1015 29.97 844 24.92 15 59 39 1.1 34
11:00 1015 29.97 844 24.92 14.9 58.7 37 0.5 32.9
11:05 1015 29.97 844 24.92 15.5 59.9 35 0.3 32.5
11:10 1015 29.97 844 24.92 15.6 60 34 -0.2 31.6
11:15 1015 29.97 844 24.92 15.9 60.6 33 -0.1 31.9
11:20 1015 29.97 844 24.92 15.8 60.4 35 0.3 32.6
11:25 1015 29.97 844 24.92 15.7 60.3 34 -0.1 31.9
11:30 1015 29.97 844 24.92 16.1 60.9 34 0.2 32.3
11:35 1015 29.97 844 24.92 16 60.7 34 0.1 32.1
11:40 1015 29.97 844 24.92 16.3 61.4 32 -0.2 31.6
11:45 1015 29.97 844 24.92 16.7 62.1 32 0 32.1
11:50 1015 29.97 844 24.92 16.9 62.4 31 -0 31.9
11:55 1015 29.97 844 24.92 17.1 62.8 31 0 32.1
12:00 1015 29.97 844 24.92 17 62.6 33 0.6 33
12:05 1015 29.97 844 24.92 17.1 62.9 31 0 32.1
12:10 1015 29.97 844 24.92 17.2 62.9 32 0.4 32.7
12:15 1015 29.97 844 24.92 16.9 62.5 32 0.3 32.5
12:20 1015 29.97 844 24.92 17.3 63.2 32 0.4 32.7
12:25 1015 29.97 844 24.92 17.7 63.9 31 0.4 32.7
12:30 1015 29.97 844 24.92 17.7 63.9 30 0.2 32.4
12:35 1015 29.97 844 24.92 18 64.4 29 0.1 32.1
12:40 1015 29.97 844 24.92 17.8 64.1 31 0.8 33.4
12:45 1015 29.97 844 24.92 18.1 64.6 29 0.1 32.1
12:50 1015 29.97 844 24.92 18.6 65.4 30 0.7 33.2
12:55 1015 29.97 844 24.92 18.4 65.2 30 0.7 33.2
13:00 1015 29.97 844 24.92 18.7 65.7 29 0.7 33.3
13:05 1015 29.97 844 24.92 18.8 65.9 30 1.2 34.2
13:10 1015 29.97 844 24.92 18.2 64.8 30 0.5 32.9
13:15 1015 29.97 844 24.92 18.2 64.7 31 1.1 34
13:20 1014 29.94 844 24.92 18.2 64.7 32 1.5 34.7
13:25 1014 29.94 844 24.92 18.4 65.2 30 0.9 33.6
13:30 1014 29.94 844 24.92 18.5 65.2 30 0.7 33.3
13:35 1014 29.94 844 24.92 18.8 65.9 29 0.8 33.4
13:40 1014 29.94 844 24.92 19 66.2 29 0.9 33.6
13:45 1014 29.94 844 24.92 18.5 65.3 30 0.9 33.5
13:50 1014 29.94 843 24.89 18.6 65.5 29 0.3 32.6
13:55 1014 29.94 843 24.89 18.5 65.2 28 -0 32
14:00 1014 29.94 843 24.89 18.4 65.2 30 0.5 32.8
14:05 1014 29.94 843 24.89 18.4 65.1 31 1.2 34.1
14:10 1014 29.94 843 24.89 19 66.2 30 1.2 34.1
14:15 1014 29.94 843 24.89 18.6 65.6 30 1.1 34
14:20 1014 29.94 843 24.89 18.5 65.3 30 0.8 33.4
14:25 1014 29.94 843 24.89 18.8 65.9 30 1.1 34
14:30 1014 29.94 843 24.89 18.6 65.5 31 1.3 34.4
14:35 1014 29.94 843 24.89 18.5 65.3 29 0.4 32.7
14:40 1014 29.94 843 24.89 18.4 65.1 31 1.3 34.3
14:45 1014 29.94 843 24.89 18.4 65 31 1 33.9
14:50 1014 29.94 843 24.89 19 66.3 31 1.5 34.6
14:55 1014 29.94 843 24.89 18.6 65.5 31 1.4 34.5
15:00 1014 29.94 843 24.89 18.6 65.5 31 1.2 34.1
15:05 1014 29.94 843 24.89 18.9 66.1 30 1.1 34
15:10 1014 29.94 843 24.89 18.5 65.2 31 1.3 34.4
15:15 1014 29.94 843 24.89 18.2 64.7 32 1.4 34.5
15:20 1014 29.94 843 24.89 18.3 64.9 32 1.6 34.8
15:25 1014 29.94 843 24.89 17.6 63.6 34 1.6 34.9
15:30 1014 29.94 843 24.89 17.3 63.1 34 1.4 34.5
15:35 1014 29.94 843 24.89 17 62.5 33 0.9 33.6
15:40 1014 29.94 843 24.89 17.6 63.6 34 1.5 34.7
15:45 1014 29.94 843 24.89 17.7 63.9 34 1.9 35.4
15:50 1014 29.94 843 24.89 17.4 63.2 35 1.8 35.2
15:55 1014 29.94 844 24.92 16.9 62.5 36 1.8 35.3
16:00 1014 29.94 844 24.92 16.5 61.8 38 2.2 35.9
16:05 1015 29.97 844 24.92 16.6 61.8 38 2.2 36
16:10 1015 29.97 844 24.92 16.5 61.8 39 2.5 36.6
16:15 1015 29.97 844 24.92 16.2 61.1 40 2.5 36.6
16:20 1015 29.97 844 24.92 16.3 61.3 37 1.7 35.1
16:25 1015 29.97 844 24.92 16.4 61.4 38 2.3 36.1
16:30 1015 29.97 844 24.92 16 60.7 40 2.5 36.4
16:35 1015 29.97 844 24.92 16 60.8 40 2.3 36.2
16:40 1015 29.97 844 24.92 16.1 61 39 2.4 36.4
16:45 1015 29.97 844 24.92 15.9 60.7 39 2.2 35.9
16:50 1015 29.97 845 24.95 16.1 60.9 39 2 35.7
16:55 1015 29.97 845 24.95 15.9 60.6 39 2.2 35.9
17:00 1015 29.97 845 24.95 15.8 60.5 40 2.2 36
17:05 1015 29.97 845 24.95 15.4 59.7 41 2.2 35.9
17:10 1016 30 845 24.95 15.4 59.7 41 2.2 36
17:15 1016 30 845 24.95 15.2 59.3 42 2.6 36.7
17:20 1016 30 845 24.95 14.9 58.8 44 2.7 36.8
17:25 1016 30 845 24.95 14.6 58.3 43 2.1 35.9
17:30 1016 30 845 24.95 14.5 58.1 43 2.3 36.2
17:35 1016 30 845 24.95 14.4 58 44 2.3 36.1
17:40 1016 30 845 24.95 14.3 57.7 45 2.5 36.5
17:45 1016 30 845 24.95 14.1 57.5 46 2.9 37.2
17:50 1016 30 845 24.95 14 57.2 47 3.1 37.6
17:55 1016 30 845 24.95 13.6 56.5 50 3.5 38.3
18:00 1016 30 846 24.98 13.3 55.9 51 3.4 38.1
18:05 1016 30 846 24.98 13.1 55.7 52 3.5 38.3
18:10 1017 30.03 846 24.98 13.1 55.6 52 3.6 38.6
18:15 1017 30.03 846 24.98 13 55.5 52 3.5 38.4
18:20 1017 30.03 846 24.98 13.1 55.5 52 3.5 38.3
18:25 1017 30.03 846 24.98 13 55.3 52 3.5 38.3
18:30 1017 30.03 846 24.98 12.8 55 53 3.6 38.4
18:35 1017 30.03 846 24.98 12.6 54.6 54 3.7 38.6
18:40 1017 30.03 846 24.98 12.4 54.3 57 4.2 39.6
18:45 1017 30.03 846 24.98 11.8 53.2 61 4.6 40.2
18:50 1017 30.03 846 24.98 11.4 52.4 64 4.9 40.8
18:55 1017 30.03 846 24.98 11 51.7 66 4.8 40.7
19:00 1017 30.03 846 24.98 10.8 51.4 67 4.9 40.9
19:05 1017 30.03 846 24.98 10.7 51.3 67 4.9 40.8
19:10 1017 30.03 846 24.98 10.7 51.3 68 5 41
19:15 1017 30.03 846 24.98 10.5 50.9 68 5 40.9
19:20 1017 30.03 846 24.98 10.6 51 68 5 41
19:25 1017 30.03 846 24.98 10.5 50.9 69 5 41.1
19:30 1017 30.03 846 24.98 10.6 51.2 68 5 41.1
19:35 1017 30.03 846 24.98 10.8 51.5 67 5.1 41.1
19:40 1017 30.03 846 24.98 10.8 51.4 69 5.3 41.5
19:45 1017 30.03 846 24.98 10.4 50.8 70 5.2 41.3
19:50 1017 30.03 846 24.98 10.5 50.9 70 5.3 41.5
19:55 1017 30.03 846 24.98 10.4 50.7 70 5.3 41.5
20:00 1017 30.03 846 24.98 10.1 50.1 72 5.4 41.7
20:05 1017 30.03 846 24.98 9.9 49.9 72 5.1 41.1
20:10 1017 30.03 846 24.98 10 50 71 5 41
20:15 1017 30.03 846 24.98 9.9 49.7 73 5.2 41.4
20:20 1017 30.03 846 24.98 9.8 49.6 73 5.1 41.2
20:25 1017 30.03 846 24.98 9.8 49.6 72 5 41.1
20:30 1017 30.03 846 24.98 9.8 49.6 72 5.1 41.1
20:35 1017 30.03 846 24.98 9.8 49.6 72 4.9 40.9
20:40 1017 30.03 846 24.98 9.8 49.6 72 4.9 40.9
20:45 1017 30.03 846 24.98 9.7 49.5 72 4.9 40.7
20:50 1017 30.03 846 24.98 9.7 49.4 72 4.8 40.7
20:55 1017 30.03 846 24.98 9.7 49.4 72 4.9 40.8
21:00 1017 30.03 846 24.98 9.6 49.2 72 4.9 40.8
21:05 1017 30.03 846 24.98 9.5 49.2 72 4.7 40.5
21:10 1017 30.03 846 24.98 9.6 49.2 72 4.7 40.5
21:15 1017 30.03 846 24.98 9.6 49.3 72 4.8 40.6
21:20 1017 30.03 846 24.98 9.6 49.2 72 4.8 40.6
21:25 1017 30.03 846 24.98 9.5 49.2 72 4.7 40.5
21:30 1017 30.03 846 24.98 9.5 49.1 72 4.8 40.6
21:35 1017 30.03 846 24.98 9.5 49.1 72 4.7 40.5
21:40 1017 30.03 846 24.98 9.7 49.4 71 4.7 40.5
21:45 1017 30.03 846 24.98 9.7 49.4 72 4.8 40.7
21:50 1017 30.03 846 24.98 9.6 49.2 71 4.6 40.3
21:55 1017 30.03 846 24.98 9.5 49.1 71 4.6 40.2
22:00 1017 30.03 846 24.98 9.5 49.1 71 4.4 40
22:05 1017 30.03 846 24.98 9.6 49.2 69 4.2 39.6
22:10 1017 30.03 846 24.98 9.7 49.4 70 4.5 40.1
22:15 1017 30.03 846 24.98 9.7 49.4 69 4.3 39.7
22:20 1017 30.03 846 24.98 9.8 49.6 69 4.3 39.8
22:25 1017 30.03 847 25.01 9.9 49.7 68 4.3 39.8
22:30 1017 30.03 847 25.01 9.9 49.9 68 4.4 39.9
22:35 1017 30.03 847 25.01 9.9 49.8 69 4.4 40
22:40 1017 30.03 847 25.01 9.8 49.6 69 4.3 39.7
22:45 1017 30.03 847 25.01 9.8 49.6 68 4.3 39.7
22:50 1018 30.06 847 25.01 9.8 49.6 69 4.3 39.8
22:55 1018 30.06 847 25.01 9.7 49.5 68 4.2 39.6
23:00 1018 30.06 847 25.01 9.7 49.5 68 4.2 39.6
23:05 1018 30.06 847 25.01 9.7 49.5 68 4.2 39.6
23:10 1018 30.06 847 25.01 9.7 49.5 70 4.6 40.2
23:15 1018 30.06 847 25.01 9.7 49.5 71 4.7 40.4
23:20 1018 30.06 847 25.01 9.6 49.3 72 4.9 40.7
23:25 1018 30.06 847 25.01 9.5 49.1 72 4.7 40.5
23:30 1018 30.06 847 25.01 9.5 49 74 5.1 41.2
23:35 1018 30.06 847 25.01 9.5 49.2 73 4.9 40.9
23:40 1018 30.06 847 25.01 9.6 49.2 71 4.6 40.2
23:45 1018 30.06 847 25.01 9.6 49.2 73 5 41
23:50 1018 30.06 847 25.01 9.4 49 71 4.5 40.1
23:55 1018 30.06 847 25.01 9.4 48.9 76 5.4 41.8
24:00 1018 30.06 847 25.01 9.5 49.1 78 5.8 42.5